createdAt,value
2017-09-13T00:01:28.376Z,12.80
2017-09-13T00:03:55.840Z,12.80
2017-09-13T00:06:23.309Z,12.80
2017-09-13T00:08:50.752Z,12.80
2017-09-13T00:11:18.211Z,12.80
2017-09-13T00:13:45.660Z,12.80
2017-09-13T00:16:13.137Z,12.80
2017-09-13T00:18:40.591Z,12.80
2017-09-13T00:21:08.048Z,12.80
2017-09-13T00:23:35.520Z,12.90
2017-09-13T00:26:03.737Z,12.90
2017-09-13T00:28:31.185Z,12.90
2017-09-13T00:30:58.628Z,12.90
2017-09-13T00:33:26.100Z,12.90
2017-09-13T00:35:53.539Z,12.90
2017-09-13T00:38:21.109Z,12.90
2017-09-13T00:40:48.568Z,13.00
2017-09-13T00:43:16.015Z,13.00
2017-09-13T00:45:43.472Z,13.00
2017-09-13T00:48:10.921Z,13.00
2017-09-13T00:50:38.400Z,12.90
2017-09-13T00:53:05.851Z,13.00
2017-09-13T00:55:33.318Z,12.90
2017-09-13T00:58:00.762Z,12.80
2017-09-13T01:00:28.995Z,12.70
2017-09-13T01:02:56.472Z,12.70
2017-09-13T01:05:25.288Z,12.70
2017-09-13T01:07:52.752Z,12.70
2017-09-13T01:10:20.197Z,12.70
2017-09-13T01:12:47.661Z,12.60
2017-09-13T01:15:15.123Z,12.60
2017-09-13T01:17:42.598Z,12.60
2017-09-13T01:20:10.046Z,12.60
2017-09-13T01:22:37.491Z,12.60
2017-09-13T01:25:04.949Z,12.60
2017-09-13T01:27:32.388Z,12.50
2017-09-13T01:29:59.866Z,12.50
2017-09-13T01:32:27.294Z,12.50
2017-09-13T01:34:54.766Z,12.50
2017-09-13T01:37:22.208Z,12.50
2017-09-13T01:39:49.678Z,12.60
2017-09-13T01:42:17.141Z,12.60
2017-09-13T01:44:44.604Z,12.70
2017-09-13T01:47:12.081Z,12.60
2017-09-13T01:49:39.531Z,12.60
2017-09-13T01:52:07.020Z,12.60
2017-09-13T01:54:35.289Z,12.70
2017-09-13T01:57:03.528Z,12.60
2017-09-13T01:59:31.728Z,12.70
2017-09-13T02:01:59.944Z,12.70
2017-09-13T02:04:27.420Z,12.70
2017-09-13T02:06:54.856Z,12.70
2017-09-13T02:09:22.332Z,12.70
2017-09-13T02:11:49.788Z,12.80
2017-09-13T02:14:17.217Z,12.80
2017-09-13T02:16:44.693Z,12.80
2017-09-13T02:19:12.139Z,12.80
2017-09-13T02:21:39.601Z,12.80
2017-09-13T02:24:07.052Z,12.90
2017-09-13T02:26:34.535Z,12.90
2017-09-13T02:29:01.979Z,12.90
2017-09-13T02:31:29.436Z,12.90
2017-09-13T02:33:56.896Z,12.90
2017-09-13T02:36:24.342Z,12.90
2017-09-13T02:38:51.812Z,12.90
2017-09-13T02:41:19.329Z,13.00
2017-09-13T02:43:46.794Z,13.00
2017-09-13T02:46:14.248Z,13.00
2017-09-13T02:48:41.729Z,13.10
2017-09-13T02:51:09.172Z,13.00
2017-09-13T02:53:36.648Z,13.00
2017-09-13T02:56:04.097Z,13.00
2017-09-13T02:58:31.540Z,13.00
2017-09-13T03:00:58.996Z,13.00
2017-09-13T03:03:26.444Z,13.00
2017-09-13T03:05:53.903Z,13.10
2017-09-13T03:08:21.364Z,13.10
2017-09-13T03:10:48.820Z,13.20
2017-09-13T03:13:16.276Z,13.20
2017-09-13T03:15:43.739Z,13.30
2017-09-13T03:18:11.188Z,13.30
2017-09-13T03:20:38.686Z,13.30
2017-09-13T03:23:06.144Z,13.30
2017-09-13T03:25:33.595Z,13.40
2017-09-13T03:28:01.061Z,13.40
2017-09-13T03:30:28.694Z,13.40
2017-09-13T03:32:56.148Z,13.40
2017-09-13T03:35:24.175Z,13.40
2017-09-13T03:37:52.391Z,13.40
2017-09-13T03:40:19.854Z,13.40
2017-09-13T03:42:48.143Z,13.40
2017-09-13T03:45:15.601Z,13.50
2017-09-13T03:47:43.052Z,13.50
2017-09-13T03:50:10.516Z,13.50
2017-09-13T03:52:37.957Z,13.50
2017-09-13T03:55:05.427Z,13.50
2017-09-13T03:57:32.878Z,13.60
2017-09-13T04:00:00.323Z,13.60
2017-09-13T04:02:27.775Z,13.60
2017-09-13T04:04:55.260Z,13.60
2017-09-13T04:07:22.712Z,13.70
2017-09-13T04:09:50.175Z,13.70
2017-09-13T04:12:17.633Z,13.70
2017-09-13T04:14:45.080Z,13.70
2017-09-13T04:17:12.674Z,13.70
2017-09-13T04:19:40.122Z,13.70
2017-09-13T04:22:08.342Z,13.70
2017-09-13T04:24:35.805Z,13.70
2017-09-13T04:27:03.257Z,13.70
2017-09-13T04:29:30.729Z,13.70
2017-09-13T04:31:58.172Z,13.70
2017-09-13T04:34:26.498Z,13.70
2017-09-13T04:36:54.724Z,13.50
2017-09-13T04:39:22.202Z,13.50
2017-09-13T04:41:49.672Z,13.40
2017-09-13T04:44:17.124Z,13.20
2017-09-13T04:46:44.573Z,13.00
2017-09-13T04:49:12.096Z,12.80
2017-09-13T04:51:39.537Z,12.60
2017-09-13T04:54:07.008Z,12.60
2017-09-13T04:56:34.468Z,12.60
2017-09-13T04:59:01.899Z,12.50
2017-09-13T05:01:29.363Z,12.50
2017-09-13T05:03:56.809Z,12.40
2017-09-13T05:06:24.268Z,12.20
2017-09-13T05:08:51.722Z,12.20
2017-09-13T05:11:19.168Z,12.10
2017-09-13T05:13:46.723Z,12.10
2017-09-13T05:16:14.982Z,12.00
2017-09-13T05:18:42.440Z,12.00
2017-09-13T05:21:10.669Z,11.90
2017-09-13T05:23:38.120Z,11.90
2017-09-13T05:26:05.601Z,11.90
2017-09-13T05:28:33.058Z,11.90
2017-09-13T05:31:00.502Z,11.90
2017-09-13T05:33:27.974Z,11.90
2017-09-13T05:35:55.427Z,11.90
2017-09-13T05:38:23.385Z,11.90
2017-09-13T05:40:50.839Z,12.00
2017-09-13T05:43:18.288Z,12.00
2017-09-13T05:45:45.772Z,12.00
2017-09-13T05:48:13.214Z,12.00
2017-09-13T05:50:40.671Z,12.00
2017-09-13T05:53:08.123Z,12.00
2017-09-13T05:55:35.570Z,12.00
2017-09-13T05:58:03.039Z,12.00
2017-09-13T06:00:30.477Z,11.90
2017-09-13T06:02:58.212Z,11.90
2017-09-13T06:05:25.652Z,11.90
2017-09-13T06:07:53.890Z,12.00
2017-09-13T06:10:21.377Z,12.00
2017-09-13T06:12:49.596Z,12.10
2017-09-13T06:15:17.044Z,12.10
2017-09-13T06:17:44.510Z,12.10
2017-09-13T06:20:11.950Z,12.10
2017-09-13T06:22:39.402Z,12.10
2017-09-13T06:25:06.860Z,12.10
2017-09-13T06:27:34.388Z,12.20
2017-09-13T06:30:02.616Z,12.10
2017-09-13T06:32:30.143Z,12.10
2017-09-13T06:34:57.604Z,12.00
2017-09-13T06:37:25.059Z,12.00
2017-09-13T06:39:52.510Z,11.90
2017-09-13T06:42:19.995Z,11.90
2017-09-13T06:44:47.416Z,11.80
2017-09-13T06:47:14.887Z,11.80
2017-09-13T06:49:42.326Z,11.80
2017-09-13T06:52:10.544Z,11.80
2017-09-13T06:54:38.810Z,11.80
2017-09-13T06:57:06.271Z,11.80
2017-09-13T06:59:33.709Z,11.90
2017-09-13T07:02:01.300Z,11.90
2017-09-13T07:04:29.520Z,12.00
2017-09-13T07:06:57.719Z,12.00
2017-09-13T07:09:25.188Z,12.00
2017-09-13T07:11:52.641Z,12.00
2017-09-13T07:14:20.135Z,12.00
2017-09-13T07:16:47.604Z,12.10
2017-09-13T07:19:15.081Z,12.00
2017-09-13T07:21:42.535Z,12.00
2017-09-13T07:24:09.986Z,12.10
2017-09-13T07:26:38.212Z,12.10
2017-09-13T07:29:05.680Z,12.10
2017-09-13T07:31:33.109Z,12.10
2017-09-13T07:34:00.638Z,12.20
2017-09-13T07:36:28.883Z,12.30
2017-09-13T07:38:56.351Z,12.20
2017-09-13T07:41:24.555Z,12.30
2017-09-13T07:43:52.004Z,12.30
2017-09-13T07:46:19.464Z,12.30
2017-09-13T07:48:46.928Z,12.30
2017-09-13T07:51:14.364Z,12.30
2017-09-13T07:53:41.800Z,12.40
2017-09-13T07:56:10.040Z,12.40
2017-09-13T07:58:37.488Z,12.40
2017-09-13T08:01:04.938Z,12.40
2017-09-13T08:03:32.376Z,12.40
2017-09-13T08:05:59.846Z,12.40
2017-09-13T08:08:27.333Z,12.50
2017-09-13T08:10:54.778Z,12.40
2017-09-13T08:13:22.235Z,12.40
2017-09-13T08:15:49.687Z,12.50
2017-09-13T08:18:17.158Z,12.60
2017-09-13T08:20:44.619Z,12.60
2017-09-13T08:23:12.072Z,12.60
2017-09-13T08:25:39.520Z,12.70
2017-09-13T08:28:06.995Z,12.70
2017-09-13T08:30:34.441Z,12.80
2017-09-13T08:33:01.914Z,12.80
2017-09-13T08:35:29.360Z,12.80
2017-09-13T08:37:56.830Z,12.80
2017-09-13T08:40:24.267Z,12.80
2017-09-13T08:42:51.741Z,12.80
2017-09-13T08:45:19.955Z,12.90
2017-09-13T08:47:47.424Z,12.90
2017-09-13T08:50:14.864Z,12.90
2017-09-13T08:52:42.343Z,13.00
2017-09-13T08:55:09.801Z,13.00
2017-09-13T08:57:37.257Z,13.00
2017-09-13T09:00:04.704Z,13.00
2017-09-13T09:02:32.165Z,13.10
2017-09-13T09:05:00.396Z,13.20
2017-09-13T09:07:28.636Z,13.20
2017-09-13T09:09:56.105Z,13.20
2017-09-13T09:12:23.541Z,13.20
2017-09-13T09:14:51.027Z,13.20
2017-09-13T09:17:19.266Z,13.40
2017-09-13T09:19:46.719Z,13.40
2017-09-13T09:22:14.185Z,13.50
2017-09-13T09:24:41.640Z,13.60
2017-09-13T09:27:09.868Z,13.60
2017-09-13T09:29:37.311Z,13.60
2017-09-13T09:32:04.788Z,13.70
2017-09-13T09:34:32.227Z,13.70
2017-09-13T09:36:59.690Z,13.80
2017-09-13T09:39:27.194Z,13.80
2017-09-13T09:41:54.640Z,13.90
2017-09-13T09:44:22.098Z,13.90
2017-09-13T09:46:49.547Z,13.90
2017-09-13T09:49:17.082Z,14.00
2017-09-13T09:51:44.521Z,14.00
2017-09-13T09:54:11.984Z,14.10
2017-09-13T09:56:39.434Z,14.10
2017-09-13T09:59:07.683Z,14.20
2017-09-13T10:01:35.176Z,14.20
2017-09-13T10:04:02.643Z,14.30
2017-09-13T10:06:30.102Z,14.30
2017-09-13T10:08:57.544Z,14.30
2017-09-13T10:11:25.011Z,14.40
2017-09-13T10:13:52.472Z,14.40
2017-09-13T10:16:19.940Z,14.50
2017-09-13T10:18:47.371Z,14.50
2017-09-13T10:21:14.835Z,14.60
2017-09-13T10:23:42.283Z,14.60
2017-09-13T10:26:09.749Z,14.70
2017-09-13T10:28:37.225Z,14.70
2017-09-13T10:31:05.236Z,14.70
2017-09-13T10:33:32.701Z,14.80
2017-09-13T10:36:00.131Z,14.80
2017-09-13T10:38:27.607Z,14.80
2017-09-13T10:40:55.086Z,14.80
2017-09-13T10:43:22.544Z,14.80
2017-09-13T10:45:49.996Z,14.80
2017-09-13T10:48:18.228Z,14.80
2017-09-13T10:50:45.683Z,14.80
2017-09-13T10:53:13.132Z,14.80
2017-09-13T10:55:40.588Z,14.90
2017-09-13T10:58:08.023Z,14.90
2017-09-13T11:00:35.509Z,14.90
2017-09-13T11:03:03.078Z,14.90
2017-09-13T11:05:30.515Z,14.90
2017-09-13T11:07:57.980Z,14.90
2017-09-13T11:10:25.442Z,14.90
2017-09-13T11:12:52.904Z,14.80
2017-09-13T11:15:20.352Z,14.80
2017-09-13T11:17:47.816Z,14.80
2017-09-13T11:20:15.272Z,14.80
2017-09-13T11:22:42.711Z,14.80
2017-09-13T11:25:10.171Z,14.90
2017-09-13T11:27:37.636Z,14.90
2017-09-13T11:30:05.075Z,14.90
2017-09-13T11:32:32.540Z,14.90
2017-09-13T11:34:59.968Z,14.90
2017-09-13T11:37:27.435Z,15.10
2017-09-13T11:39:54.907Z,15.30
2017-09-13T11:42:22.346Z,15.50
2017-09-13T11:44:49.812Z,15.90
2017-09-13T11:47:17.248Z,16.30
2017-09-13T11:49:44.714Z,16.40
2017-09-13T11:52:12.173Z,16.60
2017-09-13T11:54:39.624Z,16.80
2017-09-13T11:57:07.090Z,16.90
2017-09-13T11:59:34.584Z,17.20
2017-09-13T12:02:02.805Z,17.40
2017-09-13T12:04:30.240Z,17.40
2017-09-13T12:07:05.806Z,17.50
2017-09-13T12:09:33.363Z,17.70
2017-09-13T12:12:00.864Z,17.80
2017-09-13T12:14:28.291Z,17.90
2017-09-13T12:16:55.738Z,17.90
2017-09-13T12:19:23.190Z,17.80
2017-09-13T12:21:50.653Z,17.80
2017-09-13T12:24:18.128Z,17.90
2017-09-13T12:26:45.593Z,18.00
2017-09-13T12:29:13.129Z,17.90
2017-09-13T12:31:40.604Z,17.90
2017-09-13T12:34:08.057Z,17.90
2017-09-13T12:36:35.512Z,17.80
2017-09-13T12:39:03.734Z,17.90
2017-09-13T12:41:31.206Z,17.80
2017-09-13T12:43:58.643Z,17.80
2017-09-13T12:46:26.125Z,18.00
2017-09-13T12:48:53.593Z,18.00
2017-09-13T12:51:21.028Z,18.10
2017-09-13T12:53:48.489Z,18.30
2017-09-13T12:56:15.953Z,18.30
2017-09-13T12:58:43.410Z,18.50
2017-09-13T13:01:10.856Z,18.70
2017-09-13T13:03:38.319Z,18.90
2017-09-13T13:06:05.760Z,19.10
2017-09-13T13:08:33.369Z,19.40
2017-09-13T13:11:00.805Z,19.40
2017-09-13T13:13:28.279Z,19.50
2017-09-13T13:15:55.720Z,19.70
2017-09-13T13:18:23.165Z,19.70
2017-09-13T13:20:50.617Z,19.90
2017-09-13T13:23:18.063Z,19.90
2017-09-13T13:25:45.519Z,19.90
2017-09-13T13:28:12.985Z,20.00
2017-09-13T13:30:40.444Z,20.10
2017-09-13T13:33:07.901Z,20.00
2017-09-13T13:35:35.365Z,19.90
2017-09-13T13:38:02.823Z,19.90
2017-09-13T13:40:30.289Z,20.00
2017-09-13T13:42:57.755Z,20.00
2017-09-13T13:45:25.268Z,20.00
2017-09-13T13:47:52.723Z,20.20
2017-09-13T13:50:20.172Z,20.20
2017-09-13T13:52:47.635Z,20.20
2017-09-13T13:55:15.118Z,20.10
2017-09-13T13:57:42.587Z,20.00
2017-09-13T14:00:10.049Z,20.00
2017-09-13T14:02:37.777Z,20.00
2017-09-13T14:05:05.257Z,20.10
2017-09-13T14:07:32.701Z,20.00
2017-09-13T14:10:00.157Z,20.00
2017-09-13T14:12:27.591Z,20.20
2017-09-13T14:14:55.047Z,20.30
2017-09-13T14:17:22.489Z,20.60
2017-09-13T14:19:49.968Z,20.80
2017-09-13T14:22:17.425Z,20.90
2017-09-13T14:24:44.887Z,21.00
2017-09-13T14:27:12.348Z,21.00
2017-09-13T14:29:39.795Z,20.90
2017-09-13T14:32:07.264Z,20.90
2017-09-13T14:34:34.711Z,21.10
2017-09-13T14:37:02.191Z,21.00
2017-09-13T14:39:29.660Z,20.70
2017-09-13T14:41:57.135Z,20.50
2017-09-13T14:44:25.361Z,20.20
2017-09-13T14:46:52.825Z,20.30
2017-09-13T14:49:20.264Z,20.20
2017-09-13T14:51:47.732Z,20.20
2017-09-13T14:54:15.176Z,20.20
2017-09-13T14:56:42.644Z,20.00
2017-09-13T14:59:10.873Z,19.80
2017-09-13T15:01:39.072Z,19.70
2017-09-13T15:04:06.537Z,19.70
2017-09-13T15:06:33.976Z,19.50
2017-09-13T15:09:01.440Z,19.20
2017-09-13T15:11:28.884Z,19.00
2017-09-13T15:13:56.368Z,18.90
2017-09-13T15:16:24.530Z,18.80
2017-09-13T15:18:52.034Z,18.70
2017-09-13T15:21:19.592Z,18.70
2017-09-13T15:23:47.033Z,18.60
2017-09-13T15:26:14.501Z,18.60
2017-09-13T15:28:41.953Z,18.40
2017-09-13T15:31:09.387Z,18.00
2017-09-13T15:33:36.955Z,17.70
2017-09-13T15:36:04.394Z,17.40
2017-09-13T15:38:31.844Z,17.20
2017-09-13T15:40:59.288Z,16.90
2017-09-13T15:43:26.751Z,16.80
2017-09-13T15:45:54.193Z,16.70
2017-09-13T15:48:21.652Z,16.50
2017-09-13T15:50:49.112Z,16.50
2017-09-13T15:53:16.559Z,16.50
2017-09-13T15:55:44.025Z,16.40
2017-09-13T15:58:11.476Z,16.30
2017-09-13T16:00:38.997Z,16.30
2017-09-13T16:03:06.432Z,16.30
2017-09-13T16:05:33.868Z,16.20
2017-09-13T16:08:01.320Z,16.20
2017-09-13T16:10:28.759Z,16.10
2017-09-13T16:12:56.947Z,16.10
2017-09-13T16:15:25.095Z,16.00
2017-09-13T16:17:52.651Z,16.00
2017-09-13T16:20:20.104Z,16.00
2017-09-13T16:22:47.573Z,15.90
2017-09-13T16:25:15.072Z,15.90
2017-09-13T16:27:42.512Z,15.90
2017-09-13T16:30:09.960Z,15.90
2017-09-13T16:32:37.423Z,15.80
2017-09-13T16:35:04.868Z,15.80
2017-09-13T16:37:32.332Z,15.70
2017-09-13T16:39:59.782Z,15.70
2017-09-13T16:42:27.248Z,15.60
2017-09-13T16:44:54.713Z,15.60
2017-09-13T16:47:22.157Z,15.60
2017-09-13T16:49:49.626Z,15.50
2017-09-13T16:52:17.069Z,15.50
2017-09-13T16:54:44.521Z,15.40
2017-09-13T16:57:11.981Z,15.30
2017-09-13T16:59:39.419Z,15.20
2017-09-13T17:02:06.911Z,15.20
2017-09-13T17:04:34.359Z,15.10
2017-09-13T17:07:01.830Z,15.00
2017-09-13T17:09:29.304Z,15.00
2017-09-13T17:11:56.755Z,15.00
2017-09-13T17:14:24.215Z,14.90
2017-09-13T17:16:52.448Z,14.80
2017-09-13T17:19:19.924Z,14.80
2017-09-13T17:21:47.363Z,14.70
2017-09-13T17:24:14.932Z,14.70
2017-09-13T17:26:42.388Z,14.60
2017-09-13T17:29:09.867Z,14.40
2017-09-13T17:31:37.308Z,14.40
2017-09-13T17:34:04.796Z,14.30
2017-09-13T17:36:33.018Z,14.10
2017-09-13T17:39:00.477Z,14.10
2017-09-13T17:41:27.912Z,14.00
2017-09-13T17:43:55.387Z,13.90
2017-09-13T17:46:22.872Z,13.70
2017-09-13T17:48:50.348Z,13.60
2017-09-13T17:51:18.557Z,13.50
2017-09-13T17:53:46.016Z,13.40
2017-09-13T17:56:13.469Z,13.40
2017-09-13T17:58:40.941Z,13.30
2017-09-13T18:01:08.381Z,13.30
2017-09-13T18:03:35.844Z,13.30
2017-09-13T18:06:03.365Z,13.20
2017-09-13T18:08:31.614Z,13.00
2017-09-13T18:10:59.072Z,13.00
2017-09-13T18:13:26.522Z,12.90
2017-09-13T18:15:53.979Z,12.90
2017-09-13T18:18:21.440Z,12.80
2017-09-13T18:20:48.929Z,12.70
2017-09-13T18:23:17.205Z,12.60
2017-09-13T18:25:45.456Z,12.50
2017-09-13T18:28:12.928Z,12.50
2017-09-13T18:30:41.188Z,12.50
2017-09-13T18:33:08.654Z,12.40
2017-09-13T18:35:36.875Z,12.50
2017-09-13T18:38:04.339Z,12.40
2017-09-13T18:40:31.775Z,12.50
2017-09-13T18:42:59.253Z,12.40
2017-09-13T18:45:26.757Z,12.40
2017-09-13T18:47:54.229Z,12.40
2017-09-13T18:50:22.424Z,12.40
2017-09-13T18:52:49.892Z,12.40
2017-09-13T18:55:17.330Z,12.40
2017-09-13T18:57:44.816Z,12.40
2017-09-13T19:00:12.272Z,12.40
2017-09-13T19:02:39.732Z,12.40
2017-09-13T19:05:07.189Z,12.40
2017-09-13T19:07:34.674Z,12.40
2017-09-13T19:10:02.113Z,12.40
2017-09-13T19:12:29.617Z,12.50
2017-09-13T19:14:57.063Z,12.50
2017-09-13T19:17:25.283Z,12.60
2017-09-13T19:19:52.736Z,12.50
2017-09-13T19:22:20.190Z,12.60
2017-09-13T19:24:47.706Z,12.60
2017-09-13T19:27:15.910Z,12.60
2017-09-13T19:29:43.371Z,12.60
2017-09-13T19:32:10.841Z,12.60
2017-09-13T19:34:38.308Z,12.60
2017-09-13T19:37:05.791Z,12.60
2017-09-13T19:39:33.329Z,12.60
2017-09-13T19:42:00.849Z,12.60
2017-09-13T19:44:28.293Z,12.60
2017-09-13T19:46:55.775Z,12.60
2017-09-13T19:49:23.249Z,12.50
2017-09-13T19:51:50.724Z,12.60
2017-09-13T19:54:18.168Z,12.50
2017-09-13T19:56:45.649Z,12.50
2017-09-13T19:59:13.860Z,12.50
2017-09-13T20:01:41.305Z,12.50
2017-09-13T20:04:08.788Z,12.50
2017-09-13T20:06:36.296Z,12.40
2017-09-13T20:09:04.553Z,12.40
2017-09-13T20:11:32.006Z,12.40
2017-09-13T20:13:59.482Z,12.40
2017-09-13T20:16:27.691Z,12.40
2017-09-13T20:18:55.194Z,12.40
2017-09-13T20:21:22.633Z,12.40
2017-09-13T20:23:50.105Z,12.40
2017-09-13T20:26:17.573Z,12.40
2017-09-13T20:28:45.798Z,12.30
2017-09-13T20:31:13.248Z,12.30
2017-09-13T20:33:40.713Z,12.30
2017-09-13T20:36:08.203Z,12.30
2017-09-13T20:38:35.651Z,12.30
2017-09-13T20:41:03.100Z,12.40
2017-09-13T20:43:30.564Z,12.40
2017-09-13T20:45:58.003Z,12.40
2017-09-13T20:48:25.472Z,12.30
2017-09-13T20:50:52.960Z,12.40
2017-09-13T20:53:21.464Z,12.40
2017-09-13T20:55:48.912Z,12.40
2017-09-13T20:58:17.132Z,12.40
2017-09-13T21:00:44.599Z,12.40
2017-09-13T21:03:12.056Z,12.30
2017-09-13T21:05:39.524Z,12.30
2017-09-13T21:08:06.972Z,12.40
2017-09-13T21:10:34.419Z,12.40
2017-09-13T21:13:01.886Z,12.30
2017-09-13T21:15:29.359Z,12.40
2017-09-13T21:17:56.815Z,12.30
2017-09-13T21:20:25.041Z,12.40
2017-09-13T21:22:52.520Z,12.40
2017-09-13T21:25:19.963Z,12.40
2017-09-13T21:27:47.426Z,12.40
2017-09-13T21:30:14.896Z,12.40
2017-09-13T21:32:42.352Z,12.40
2017-09-13T21:35:09.802Z,12.40
2017-09-13T21:37:37.258Z,12.40
2017-09-13T21:40:04.695Z,12.40
2017-09-13T21:42:32.176Z,12.40
2017-09-13T21:44:59.647Z,12.50
2017-09-13T21:47:27.104Z,12.50
2017-09-13T21:49:55.357Z,12.50
2017-09-13T21:52:22.865Z,12.50
2017-09-13T21:54:50.320Z,12.50
2017-09-13T21:57:17.781Z,12.50
2017-09-13T21:59:45.334Z,12.50
2017-09-13T22:02:12.801Z,12.50
2017-09-13T22:04:40.272Z,12.50
2017-09-13T22:07:07.704Z,12.60
2017-09-13T22:09:35.187Z,12.60
2017-09-13T22:12:02.668Z,12.60
2017-09-13T22:14:30.129Z,12.50
2017-09-13T22:16:57.578Z,12.50
2017-09-13T22:19:25.052Z,12.60
2017-09-13T22:21:53.268Z,12.60
2017-09-13T22:24:20.729Z,12.60
2017-09-13T22:26:48.180Z,12.60
2017-09-13T22:29:15.619Z,12.60
2017-09-13T22:31:43.093Z,12.60
2017-09-13T22:34:10.533Z,12.60
2017-09-13T22:36:38.011Z,12.60
2017-09-13T22:39:05.549Z,12.70
2017-09-13T22:41:33.003Z,12.60
2017-09-13T22:44:00.451Z,12.70
2017-09-13T22:46:28.696Z,12.60
2017-09-13T22:48:56.142Z,12.60
2017-09-13T22:51:24.361Z,12.70
2017-09-13T22:53:51.824Z,12.60
2017-09-13T22:56:19.349Z,12.70
2017-09-13T22:58:46.825Z,12.70
2017-09-13T23:01:15.049Z,12.70
2017-09-13T23:03:42.492Z,12.60
2017-09-13T23:06:09.965Z,12.70
2017-09-13T23:08:38.175Z,12.70
2017-09-13T23:11:06.401Z,12.60
2017-09-13T23:13:33.864Z,12.60
2017-09-13T23:16:01.444Z,12.70
2017-09-13T23:18:28.901Z,12.60
2017-09-13T23:20:56.356Z,12.60
2017-09-13T23:23:23.817Z,12.60
2017-09-13T23:25:51.277Z,12.70
2017-09-13T23:28:18.746Z,12.70
2017-09-13T23:30:46.996Z,12.70
2017-09-13T23:33:14.463Z,12.60
2017-09-13T23:35:41.902Z,12.60
2017-09-13T23:38:09.361Z,12.60
2017-09-13T23:40:36.807Z,12.60
2017-09-13T23:43:04.273Z,12.60
2017-09-13T23:45:31.713Z,12.60
2017-09-13T23:47:59.949Z,12.60
2017-09-13T23:50:27.400Z,12.60
2017-09-13T23:52:54.853Z,12.60
2017-09-13T23:55:23.080Z,12.60
2017-09-13T23:57:50.527Z,12.60
